Time,TemperatureF,DewpointF,PressureIn,WindDirection,WindDirectionDegrees,WindSpeedMPH,WindSpeedGustMPH,Humidity,HourlyPrecipIn,Conditions,Clouds,dailyrainin,SolarRadiationWatts/m^2,SoftwareType,DateUTC
2013-06-02 00:02:00,77.0,72.0,-100.00,SE,143,5.0,9.0,86,0.00,,,0.00,0.000000,,2013-06-02 05:02:00,
2013-06-02 00:12:00,77.0,72.0,-100.00,SE,143,5.0,9.0,86,0.00,,,0.00,0.000000,,2013-06-02 05:12:00,
2013-06-02 00:22:00,77.0,72.0,-100.00,SE,143,5.0,9.0,86,0.00,,,0.00,0.000000,,2013-06-02 05:22:00,
2013-06-02 00:52:00,77.0,73.0,-100.00,SSE,149,3.0,10.0,87,0.00,,,0.00,0.000000,,2013-06-02 05:52:00,
2013-06-02 01:01:00,77.0,73.0,-100.00,SSE,149,3.0,10.0,87,0.00,,,0.00,0.000000,,2013-06-02 06:01:00,
2013-06-02 01:12:00,77.0,73.0,-100.00,SSE,149,3.0,10.0,87,0.00,,,0.00,0.000000,,2013-06-02 06:12:00,
2013-06-02 01:21:00,77.0,73.0,-100.00,SSE,149,3.0,10.0,87,0.00,,,0.00,0.000000,,2013-06-02 06:21:00,
2013-06-02 01:52:00,77.0,73.0,-100.00,SSE,157,3.0,6.0,88,0.00,,,0.00,0.000000,,2013-06-02 06:52:00,
2013-06-02 02:01:00,77.0,73.0,-100.00,SSE,157,3.0,6.0,88,0.00,,,0.00,0.000000,,2013-06-02 07:01:00,
2013-06-02 02:11:00,77.0,73.0,-100.00,SSE,157,3.0,6.0,88,0.00,,,0.00,0.000000,,2013-06-02 07:11:00,
2013-06-02 02:21:00,77.0,73.0,-100.00,SSE,157,3.0,6.0,88,0.00,,,0.00,0.000000,,2013-06-02 07:21:00,
2013-06-02 02:52:00,76.0,72.0,-100.00,South,174,3.0,8.0,88,0.00,,,0.00,0.000000,,2013-06-02 07:52:00,
2013-06-02 03:02:00,76.0,72.0,-100.00,South,174,3.0,8.0,88,0.00,,,0.00,0.000000,,2013-06-02 08:02:00,
2013-06-02 03:12:00,76.0,72.0,-100.00,South,174,3.0,8.0,88,0.00,,,0.00,0.000000,,2013-06-02 08:12:00,
2013-06-02 03:21:00,76.0,72.0,-100.00,South,174,3.0,8.0,88,0.00,,,0.00,0.000000,,2013-06-02 08:21:00,
2013-06-02 03:52:00,75.0,72.0,-100.00,NNW,331,0.0,5.0,91,0.00,,,0.00,0.000000,,2013-06-02 08:52:00,
2013-06-02 04:01:00,75.0,72.0,-100.00,NNW,331,0.0,5.0,91,0.00,,,0.00,0.000000,,2013-06-02 09:01:00,
2013-06-02 04:11:00,75.0,72.0,-100.00,NNW,331,0.0,5.0,91,0.00,,,0.00,0.000000,,2013-06-02 09:11:00,
2013-06-02 04:21:00,75.0,72.0,-100.00,NNW,331,0.0,5.0,91,0.00,,,0.00,0.000000,,2013-06-02 09:21:00,
2013-06-02 04:53:00,72.0,70.0,-100.00,North,359,0.0,2.0,93,0.00,,,0.00,0.000000,,2013-06-02 09:53:00,
2013-06-02 05:02:00,72.0,70.0,-100.00,North,359,0.0,2.0,93,0.00,,,0.00,0.000000,,2013-06-02 10:02:00,
2013-06-02 05:12:00,72.0,70.0,-100.00,North,359,0.0,2.0,93,0.00,,,0.00,0.000000,,2013-06-02 10:12:00,
2013-06-02 05:22:00,72.0,70.0,-100.00,North,359,0.0,2.0,93,0.00,,,0.00,0.000000,,2013-06-02 10:22:00,
2013-06-02 05:52:00,72.0,70.0,-100.00,NNE,21,0.0,0.0,95,0.00,,,0.00,0.000000,,2013-06-02 10:52:00,
2013-06-02 06:02:00,72.0,70.0,-100.00,NNE,21,0.0,0.0,95,0.00,,,0.00,0.000000,,2013-06-02 11:02:00,
2013-06-02 06:12:00,72.0,70.0,-100.00,NNE,21,0.0,0.0,95,0.00,,,0.00,0.000000,,2013-06-02 11:12:00,
2013-06-02 06:22:00,72.0,70.0,-100.00,NNE,21,0.0,0.0,95,0.00,,,0.00,0.000000,,2013-06-02 11:22:00,
2013-06-02 06:52:00,73.0,71.0,-100.00,WNW,283,0.0,0.0,95,0.00,,,0.00,15.000000,,2013-06-02 11:52:00,
2013-06-02 07:01:00,73.0,71.0,-100.00,WNW,283,0.0,0.0,95,0.00,,,0.00,15.000000,,2013-06-02 12:01:00,
2013-06-02 07:11:00,73.0,71.0,-100.00,WNW,283,0.0,0.0,95,0.00,,,0.00,15.000000,,2013-06-02 12:11:00,
2013-06-02 07:21:00,73.0,71.0,-100.00,WNW,283,0.0,0.0,95,0.00,,,0.00,15.000000,,2013-06-02 12:21:00,
2013-06-02 07:52:00,72.0,68.0,-100.00,North,350,8.0,17.0,88,0.00,,,0.00,76.000000,,2013-06-02 12:52:00,
2013-06-02 08:01:00,72.0,68.0,-100.00,North,350,8.0,17.0,88,0.00,,,0.00,76.000000,,2013-06-02 13:01:00,
2013-06-02 08:11:00,72.0,68.0,-100.00,North,350,8.0,17.0,88,0.00,,,0.00,76.000000,,2013-06-02 13:11:00,
2013-06-02 08:21:00,72.0,68.0,-100.00,North,350,8.0,17.0,88,0.00,,,0.00,76.000000,,2013-06-02 13:21:00,
2013-06-02 08:52:00,72.0,67.0,-100.00,NNE,18,2.0,11.0,85,0.00,,,0.00,84.000000,,2013-06-02 13:52:00,
2013-06-02 09:02:00,72.0,67.0,-100.00,NNE,18,2.0,11.0,85,0.00,,,0.00,84.000000,,2013-06-02 14:02:00,
2013-06-02 09:11:00,72.0,67.0,-100.00,NNE,18,2.0,11.0,85,0.00,,,0.00,84.000000,,2013-06-02 14:11:00,
2013-06-02 09:21:00,72.0,67.0,-100.00,NNE,18,2.0,11.0,85,0.00,,,0.00,84.000000,,2013-06-02 14:21:00,
2013-06-02 09:52:00,81.0,66.0,-100.00,NNE,28,6.0,12.0,60,0.00,,,0.00,573.000000,,2013-06-02 14:52:00,
2013-06-02 10:01:00,81.0,66.0,-100.00,NNE,28,6.0,12.0,60,0.00,,,0.00,573.000000,,2013-06-02 15:01:00,
2013-06-02 10:11:00,81.0,66.0,-100.00,NNE,28,6.0,12.0,60,0.00,,,0.00,573.000000,,2013-06-02 15:11:00,
2013-06-02 10:21:00,81.0,66.0,-100.00,NNE,28,6.0,12.0,60,0.00,,,0.00,573.000000,,2013-06-02 15:21:00,
2013-06-02 10:53:00,84.0,64.0,-100.00,NNE,28,5.0,10.0,52,0.00,,,0.00,746.000000,,2013-06-02 15:53:00,
2013-06-02 11:03:00,84.0,64.0,-100.00,NNE,28,5.0,10.0,52,0.00,,,0.00,746.000000,,2013-06-02 16:03:00,
2013-06-02 11:13:00,84.0,64.0,-100.00,NNE,28,5.0,10.0,52,0.00,,,0.00,746.000000,,2013-06-02 16:13:00,
2013-06-02 11:23:00,84.0,64.0,-100.00,NNE,28,5.0,10.0,52,0.00,,,0.00,746.000000,,2013-06-02 16:23:00,
2013-06-02 11:53:00,88.0,65.0,-100.00,ENE,66,4.0,9.0,46,0.00,,,0.00,970.000000,,2013-06-02 16:53:00,
2013-06-02 12:02:00,88.0,65.0,-100.00,ENE,66,4.0,9.0,46,0.00,,,0.00,970.000000,,2013-06-02 17:02:00,
2013-06-02 12:12:00,88.0,65.0,-100.00,ENE,66,4.0,9.0,46,0.00,,,0.00,970.000000,,2013-06-02 17:12:00,
2013-06-02 12:22:00,88.0,65.0,-100.00,ENE,66,4.0,9.0,46,0.00,,,0.00,970.000000,,2013-06-02 17:22:00,
2013-06-02 12:52:00,88.0,68.0,-100.00,SSE,151,8.0,13.0,51,0.00,,,0.00,1012.000000,,2013-06-02 17:52:00,
2013-06-02 13:02:00,88.0,68.0,-100.00,SSE,151,8.0,13.0,51,0.00,,,0.00,1012.000000,,2013-06-02 18:02:00,
2013-06-02 13:11:00,88.0,68.0,-100.00,SSE,151,8.0,13.0,51,0.00,,,0.00,1012.000000,,2013-06-02 18:11:00,
2013-06-02 13:21:00,88.0,68.0,-100.00,SSE,151,8.0,13.0,51,0.00,,,0.00,1012.000000,,2013-06-02 18:21:00,
2013-06-02 13:52:00,88.0,68.0,-100.00,SSE,165,6.0,12.0,52,0.00,,,0.00,1121.000000,,2013-06-02 18:52:00,
2013-06-02 14:01:00,88.0,68.0,-100.00,SSE,165,6.0,12.0,52,0.00,,,0.00,1121.000000,,2013-06-02 19:01:00,
2013-06-02 14:11:00,88.0,68.0,-100.00,SSE,165,6.0,12.0,52,0.00,,,0.00,1121.000000,,2013-06-02 19:11:00,
2013-06-02 14:21:00,88.0,68.0,-100.00,SSE,165,6.0,12.0,52,0.00,,,0.00,1121.000000,,2013-06-02 19:21:00,
2013-06-02 14:52:00,88.0,68.0,-100.00,SSE,165,7.0,12.0,51,0.00,,,0.00,1070.000000,,2013-06-02 19:52:00,
2013-06-02 15:02:00,88.0,68.0,-100.00,SSE,165,7.0,12.0,51,0.00,,,0.00,1070.000000,,2013-06-02 20:02:00,
2013-06-02 15:11:00,88.0,68.0,-100.00,SSE,165,7.0,12.0,51,0.00,,,0.00,1070.000000,,2013-06-02 20:11:00,
2013-06-02 15:21:00,88.0,68.0,-100.00,SSE,165,7.0,12.0,51,0.00,,,0.00,1070.000000,,2013-06-02 20:21:00,
2013-06-02 15:52:00,86.0,71.0,-100.00,SSE,163,6.0,14.0,62,0.00,,,0.00,961.000000,,2013-06-02 20:52:00,
2013-06-02 16:01:00,86.0,71.0,-100.00,SSE,163,6.0,14.0,62,0.00,,,0.00,961.000000,,2013-06-02 21:01:00,
2013-06-02 16:12:00,86.0,71.0,-100.00,SSE,163,6.0,14.0,62,0.00,,,0.00,961.000000,,2013-06-02 21:12:00,
2013-06-02 16:21:00,86.0,71.0,-100.00,SSE,163,6.0,14.0,62,0.00,,,0.00,961.000000,,2013-06-02 21:21:00,
2013-06-02 16:53:00,86.0,72.0,-100.00,SSE,152,7.0,12.0,64,0.00,,,0.00,809.000000,,2013-06-02 21:53:00,
2013-06-02 17:03:00,86.0,72.0,-100.00,SSE,152,7.0,12.0,64,0.00,,,0.00,809.000000,,2013-06-02 22:03:00,
2013-06-02 17:12:00,86.0,72.0,-100.00,SSE,152,7.0,12.0,64,0.00,,,0.00,809.000000,,2013-06-02 22:12:00,
2013-06-02 17:23:00,86.0,72.0,-100.00,SSE,152,7.0,12.0,64,0.00,,,0.00,809.000000,,2013-06-02 22:23:00,
2013-06-02 17:53:00,85.0,73.0,-100.00,South,187,7.0,15.0,67,0.00,,,0.00,458.000000,,2013-06-02 22:53:00,
2013-06-02 18:02:00,85.0,73.0,-100.00,South,187,7.0,15.0,67,0.00,,,0.00,458.000000,,2013-06-02 23:02:00,
2013-06-02 18:12:00,85.0,73.0,-100.00,South,187,7.0,15.0,67,0.00,,,0.00,458.000000,,2013-06-02 23:12:00,
2013-06-02 18:22:00,85.0,73.0,-100.00,South,187,7.0,15.0,67,0.00,,,0.00,458.000000,,2013-06-02 23:22:00,
2013-06-02 18:52:00,82.0,74.0,-100.00,SSW,192,5.0,13.0,78,0.00,,,0.00,193.000000,,2013-06-02 23:52:00,
2013-06-02 19:01:00,82.0,74.0,-100.00,SSW,192,5.0,13.0,78,0.00,,,0.00,193.000000,,2013-06-03 00:01:00,
2013-06-02 19:12:00,82.0,74.0,-100.00,SSW,192,5.0,13.0,78,0.00,,,0.00,193.000000,,2013-06-03 00:12:00,
2013-06-02 19:21:00,82.0,74.0,-100.00,SSW,192,5.0,13.0,78,0.00,,,0.00,193.000000,,2013-06-03 00:21:00,
2013-06-02 19:52:00,81.0,73.0,-100.00,SW,218,4.0,10.0,76,0.00,,,0.00,93.000000,,2013-06-03 00:52:00,
2013-06-02 20:01:00,81.0,73.0,-100.00,SW,218,4.0,10.0,76,0.00,,,0.00,93.000000,,2013-06-03 01:01:00,
2013-06-02 20:11:00,81.0,73.0,-100.00,SW,218,4.0,10.0,76,0.00,,,0.00,93.000000,,2013-06-03 01:11:00,
2013-06-02 20:21:00,81.0,73.0,-100.00,SW,218,4.0,10.0,76,0.00,,,0.00,93.000000,,2013-06-03 01:21:00,
2013-06-02 20:52:00,78.0,73.0,-100.00,SE,125,1.0,6.0,85,0.00,,,0.00,6.000000,,2013-06-03 01:52:00,
2013-06-02 21:02:00,78.0,73.0,-100.00,SE,125,1.0,6.0,85,0.00,,,0.00,6.000000,,2013-06-03 02:02:00,
2013-06-02 21:12:00,78.0,73.0,-100.00,SE,125,1.0,6.0,85,0.00,,,0.00,6.000000,,2013-06-03 02:12:00,
2013-06-02 21:22:00,78.0,73.0,-100.00,SE,125,1.0,6.0,85,0.00,,,0.00,6.000000,,2013-06-03 02:22:00,
2013-06-02 21:52:00,76.0,70.0,-100.00,NNE,18,2.0,7.0,82,0.00,,,0.00,0.000000,,2013-06-03 02:52:00,
2013-06-02 22:02:00,76.0,70.0,-100.00,NNE,18,2.0,7.0,82,0.00,,,0.00,0.000000,,2013-06-03 03:02:00,
2013-06-02 22:12:00,76.0,70.0,-100.00,NNE,18,2.0,7.0,82,0.00,,,0.00,0.000000,,2013-06-03 03:12:00,
2013-06-02 22:22:00,76.0,70.0,-100.00,NNE,18,2.0,7.0,82,0.00,,,0.00,0.000000,,2013-06-03 03:22:00,
2013-06-02 22:53:00,75.0,70.0,-100.00,SE,127,3.0,5.0,85,0.00,,,0.00,0.000000,,2013-06-03 03:53:00,
2013-06-02 23:03:00,75.0,70.0,-100.00,SE,127,3.0,5.0,85,0.00,,,0.00,0.000000,,2013-06-03 04:03:00,
2013-06-02 23:13:00,75.0,70.0,-100.00,SE,127,3.0,5.0,85,0.00,,,0.00,0.000000,,2013-06-03 04:13:00,
2013-06-02 23:23:00,75.0,70.0,-100.00,SE,127,3.0,5.0,85,0.00,,,0.00,0.000000,,2013-06-03 04:23:00,
2013-06-02 23:53:00,74.0,71.0,-100.00,East,99,0.0,7.0,90,0.00,,,0.00,0.000000,,2013-06-03 04:53:00,